CPA134 YMML-VHHH
Flight info
| Callsign | CPA134 |
|---|---|
| Flight time | N/A |
| Altitude | 38000 |
| Route | KEPPA3/27 KEPPA H336 NATYA J19 BHI T25 TNK J30 TN DCT BEDUG DCT BUTPA/N0487F400 A461 ZAM A583 SABNO V542 BETTY |
| Aircraft | A359/H-SDE2E3GHIJ3J4J5LM1ORWXY/LB1D1 |
Departure
| Time | 2026-05-05 09:48 |
|---|---|
| Airport | Melbourne Airport (YMML) |
Arrival
| Time | N/A |
|---|---|
| Airport | Hong Kong International Airport (VHHH) |
| Time | Latitude | Longitude | Altitude | Speed | Heading |
|---|---|---|---|---|---|
| 2026-05-05 09:09 | -37.66822 | 144.84315 | 408 ft | 0 kts | 82° |
| 2026-05-05 09:35 | -37.66824 | 144.84296 | 407 ft | 3 kts | 82° |
| 2026-05-05 09:36 | -37.66828 | 144.84269 | 406 ft | 3 kts | 77° |
| 2026-05-05 09:36 | -37.66832 | 144.84244 | 404 ft | 3 kts | 90° |
| 2026-05-05 09:36 | -37.66830 | 144.84221 | 403 ft | 3 kts | 109° |
| 2026-05-05 09:36 | -37.66824 | 144.84203 | 404 ft | 3 kts | 140° |
| 2026-05-05 09:37 | -37.66812 | 144.84193 | 399 ft | 4 kts | 175° |
| 2026-05-05 09:37 | -37.66791 | 144.84192 | 405 ft | 5 kts | 175° |
| 2026-05-05 09:37 | -37.66782 | 144.84191 | 404 ft | 4 kts | 171° |
| 2026-05-05 09:42 | -37.66783 | 144.84192 | 404 ft | 1 kts | 172° |
| 2026-05-05 09:42 | -37.66823 | 144.84199 | 405 ft | 10 kts | 172° |
| 2026-05-05 09:42 | -37.66906 | 144.84217 | 400 ft | 14 kts | 171° |
| 2026-05-05 09:42 | -37.67017 | 144.84237 | 397 ft | 18 kts | 171° |
| 2026-05-05 09:43 | -37.67151 | 144.84262 | 391 ft | 21 kts | 172° |
| 2026-05-05 09:43 | -37.67309 | 144.84291 | 388 ft | 24 kts | 171° |
| 2026-05-05 09:43 | -37.67487 | 144.84324 | 382 ft | 27 kts | 171° |
| 2026-05-05 09:43 | -37.67685 | 144.84361 | 376 ft | 30 kts | 171° |
| 2026-05-05 09:44 | -37.67893 | 144.84400 | 371 ft | 29 kts | 172° |
| 2026-05-05 09:44 | -37.68099 | 144.84438 | 364 ft | 31 kts | 172° |
| 2026-05-05 09:44 | -37.68322 | 144.84469 | 364 ft | 33 kts | 187° |
| 2026-05-05 09:44 | -37.68520 | 144.84324 | 356 ft | 29 kts | 225° |
| 2026-05-05 09:45 | -37.68546 | 144.84247 | 355 ft | 0 kts | 273° |
| 2026-05-05 09:46 | -37.68543 | 144.84192 | 355 ft | 13 kts | 279° |
| 2026-05-05 09:46 | -37.68465 | 144.84084 | 359 ft | 20 kts | 341° |
| 2026-05-05 09:47 | -37.68419 | 144.84070 | 359 ft | 18 kts | 349° |
| 2026-05-05 09:47 | -37.68081 | 144.84002 | 365 ft | 78 kts | 351° |
| 2026-05-05 09:47 | -37.67364 | 144.83868 | 388 ft | 128 kts | 351° |
| 2026-05-05 09:47 | -37.66337 | 144.83666 | 473 ft | 165 kts | 353° |
| 2026-05-05 09:48 | -37.65261 | 144.83506 | 1174 ft | 155 kts | 351° |
| 2026-05-05 09:48 | -37.64146 | 144.83292 | 1555 ft | 171 kts | 348° |
| 2026-05-05 09:48 | -37.62891 | 144.83026 | 1782 ft | 194 kts | 348° |
| 2026-05-05 09:48 | -37.61495 | 144.82741 | 2122 ft | 210 kts | 348° |
| 2026-05-05 09:49 | -37.60036 | 144.82456 | 2649 ft | 215 kts | 349° |
| 2026-05-05 09:49 | -37.58547 | 144.82172 | 3202 ft | 218 kts | 349° |
| 2026-05-05 09:49 | -37.57032 | 144.81846 | 3708 ft | 223 kts | 345° |
| 2026-05-05 09:49 | -37.55578 | 144.81057 | 3991 ft | 238 kts | 322° |
| 2026-05-05 09:50 | -37.54250 | 144.79673 | 4283 ft | 255 kts | 315° |
| 2026-05-05 09:50 | -37.52919 | 144.78133 | 4769 ft | 264 kts | 315° |
| 2026-05-05 09:50 | -37.51554 | 144.76569 | 4968 ft | 266 kts | 315° |
| 2026-05-05 09:50 | -37.50178 | 144.75015 | 4997 ft | 267 kts | 316° |
| 2026-05-05 09:51 | -37.48806 | 144.73475 | 5001 ft | 267 kts | 316° |
| 2026-05-05 09:51 | -37.47396 | 144.71901 | 5043 ft | 267 kts | 316° |
| 2026-05-05 09:51 | -37.46019 | 144.70368 | 5345 ft | 269 kts | 316° |
| 2026-05-05 09:51 | -37.44610 | 144.68801 | 6028 ft | 271 kts | 316° |
| 2026-05-05 09:52 | -37.43195 | 144.67228 | 6805 ft | 272 kts | 316° |
| 2026-05-05 09:52 | -37.41756 | 144.65629 | 7517 ft | 274 kts | 316° |
| 2026-05-05 09:52 | -37.40331 | 144.64048 | 8214 ft | 278 kts | 315° |
| 2026-05-05 09:52 | -37.38875 | 144.62434 | 8950 ft | 281 kts | 315° |
| 2026-05-05 09:53 | -37.37393 | 144.60799 | 9709 ft | 284 kts | 315° |
| 2026-05-05 09:53 | -37.35899 | 144.59139 | 10339 ft | 292 kts | 315° |
| 2026-05-05 09:53 | -37.34335 | 144.57391 | 10629 ft | 310 kts | 315° |
| 2026-05-05 09:53 | -37.32672 | 144.55535 | 10897 ft | 329 kts | 315° |
| 2026-05-05 09:54 | -37.30890 | 144.53556 | 11181 ft | 346 kts | 315° |
| 2026-05-05 09:54 | -37.29065 | 144.51536 | 11443 ft | 362 kts | 316° |
| 2026-05-05 09:54 | -37.27143 | 144.49417 | 11799 ft | 373 kts | 316° |
| 2026-05-05 09:54 | -37.25173 | 144.47252 | 12344 ft | 378 kts | 316° |
| 2026-05-05 09:55 | -37.23184 | 144.45065 | 12923 ft | 382 kts | 316° |
| 2026-05-05 09:55 | -37.21172 | 144.42853 | 13496 ft | 386 kts | 316° |
| 2026-05-05 09:55 | -37.19144 | 144.40622 | 14074 ft | 390 kts | 316° |
| 2026-05-05 09:55 | -37.17099 | 144.38373 | 14586 ft | 393 kts | 316° |
| 2026-05-05 09:56 | -37.15031 | 144.36101 | 15111 ft | 396 kts | 316° |
| 2026-05-05 09:56 | -37.12951 | 144.33815 | 15633 ft | 399 kts | 316° |
| 2026-05-05 09:56 | -37.10853 | 144.31513 | 16195 ft | 402 kts | 317° |
| 2026-05-05 09:56 | -37.08740 | 144.29195 | 16752 ft | 406 kts | 317° |
| 2026-05-05 09:57 | -37.06613 | 144.26864 | 17300 ft | 409 kts | 317° |
| 2026-05-05 09:57 | -37.04463 | 144.24508 | 17857 ft | 412 kts | 317° |
| 2026-05-05 09:57 | -37.02296 | 144.22136 | 18405 ft | 415 kts | 317° |
| 2026-05-05 09:57 | -37.00116 | 144.19751 | 18901 ft | 419 kts | 317° |
| 2026-05-05 09:58 | -36.97915 | 144.17346 | 19382 ft | 421 kts | 317° |
| 2026-05-05 09:58 | -36.95696 | 144.14925 | 19867 ft | 425 kts | 317° |
| 2026-05-05 09:58 | -36.93461 | 144.12487 | 20369 ft | 428 kts | 317° |
| 2026-05-05 09:58 | -36.91213 | 144.10037 | 20874 ft | 431 kts | 317° |
| 2026-05-05 09:59 | -36.88947 | 144.07568 | 21388 ft | 434 kts | 317° |
| 2026-05-05 09:59 | -36.86667 | 144.05087 | 21893 ft | 437 kts | 317° |
| 2026-05-05 09:59 | -36.84363 | 144.02582 | 22417 ft | 440 kts | 317° |
| 2026-05-05 09:59 | -36.82032 | 144.00088 | 22928 ft | 444 kts | 320° |
| 2026-05-05 10:00 | -36.79496 | 143.97878 | 23428 ft | 448 kts | 329° |
| 2026-05-05 10:00 | -36.76671 | 143.96206 | 23930 ft | 451 kts | 337° |
| 2026-05-05 10:00 | -36.73718 | 143.94817 | 24378 ft | 454 kts | 339° |
| 2026-05-05 10:00 | -36.70725 | 143.93541 | 24817 ft | 456 kts | 340° |
| 2026-05-05 10:01 | -36.67697 | 143.92312 | 25246 ft | 459 kts | 341° |
| 2026-05-05 10:01 | -36.64689 | 143.91106 | 25667 ft | 462 kts | 341° |
| 2026-05-05 10:01 | -36.61634 | 143.89878 | 26103 ft | 464 kts | 340° |
| 2026-05-05 10:01 | -36.58529 | 143.88617 | 26539 ft | 466 kts | 340° |
| 2026-05-05 10:02 | -36.55443 | 143.87352 | 26953 ft | 469 kts | 340° |
| 2026-05-05 10:02 | -36.52331 | 143.86068 | 27379 ft | 471 kts | 340° |
| 2026-05-05 10:02 | -36.49215 | 143.84780 | 27788 ft | 474 kts | 340° |
| 2026-05-05 10:02 | -36.46079 | 143.83483 | 28200 ft | 476 kts | 340° |
| 2026-05-05 10:03 | -36.42925 | 143.82178 | 28612 ft | 478 kts | 340° |
| 2026-05-05 10:03 | -36.39762 | 143.80871 | 28980 ft | 481 kts | 340° |
| 2026-05-05 10:03 | -36.36572 | 143.79555 | 29351 ft | 484 kts | 340° |
| 2026-05-05 10:03 | -36.33376 | 143.78239 | 29723 ft | 486 kts | 340° |
| 2026-05-05 10:04 | -36.30156 | 143.76913 | 30064 ft | 488 kts | 340° |
| 2026-05-05 10:04 | -36.26924 | 143.75584 | 30391 ft | 490 kts | 340° |
| 2026-05-05 10:04 | -36.23680 | 143.74253 | 30721 ft | 491 kts | 340° |
| 2026-05-05 10:04 | -36.20447 | 143.72927 | 31165 ft | 489 kts | 339° |
| 2026-05-05 10:05 | -36.17228 | 143.71608 | 31590 ft | 487 kts | 339° |
| 2026-05-05 10:05 | -36.14017 | 143.70292 | 31980 ft | 485 kts | 339° |
| 2026-05-05 10:05 | -36.10814 | 143.68980 | 32350 ft | 484 kts | 338° |
| 2026-05-05 10:05 | -36.07620 | 143.67672 | 32709 ft | 484 kts | 338° |
| 2026-05-05 10:06 | -36.04427 | 143.66366 | 33061 ft | 483 kts | 338° |
| 2026-05-05 10:06 | -36.01239 | 143.65062 | 33409 ft | 482 kts | 338° |
| 2026-05-05 10:06 | -35.98056 | 143.63763 | 33752 ft | 481 kts | 337° |
| 2026-05-05 10:06 | -35.94888 | 143.62472 | 34086 ft | 480 kts | 337° |
| 2026-05-05 10:07 | -35.91707 | 143.61176 | 34381 ft | 480 kts | 337° |
| 2026-05-05 10:07 | -35.88538 | 143.59886 | 34660 ft | 479 kts | 337° |
| 2026-05-05 10:07 | -35.85308 | 143.58573 | 34930 ft | 478 kts | 337° |
| 2026-05-05 10:07 | -35.70874 | 143.52706 | 36063 ft | 475 kts | 337° |
| 2026-05-05 10:08 | -35.45935 | 143.42647 | 37744 ft | 471 kts | 337° |
| 2026-05-05 10:08 | -35.20869 | 143.32604 | 38285 ft | 477 kts | 338° |
| 2026-05-05 10:08 | -34.72520 | 143.08023 | 38273 ft | 471 kts | 328° |
| 2026-05-05 10:09 | -34.36138 | 142.85948 | 38276 ft | 470 kts | 329° |
| 2026-05-05 10:09 | -34.12867 | 142.71885 | 38277 ft | 470 kts | 329° |
| 2026-05-05 10:10 | -33.89414 | 142.57807 | 38280 ft | 471 kts | 330° |
| 2026-05-05 10:10 | -33.65940 | 142.43862 | 38279 ft | 471 kts | 330° |
| 2026-05-05 10:11 | -33.42437 | 142.30002 | 38278 ft | 471 kts | 330° |
| 2026-05-05 10:11 | -33.18871 | 142.16191 | 38292 ft | 471 kts | 330° |
| 2026-05-05 10:12 | -32.95335 | 142.02479 | 38284 ft | 470 kts | 330° |
| 2026-05-05 10:12 | -32.71810 | 141.88856 | 38285 ft | 469 kts | 330° |
| 2026-05-05 10:13 | -32.48332 | 141.75340 | 38282 ft | 468 kts | 330° |
| 2026-05-05 10:13 | -32.24893 | 141.61925 | 38285 ft | 467 kts | 330° |
| 2026-05-05 10:14 | -32.05258 | 141.50745 | 38285 ft | 467 kts | 330° |
| 2026-05-05 10:14 | -31.87555 | 141.38632 | 38279 ft | 464 kts | 324° |
| 2026-05-05 10:15 | -31.82972 | 141.35264 | 38279 ft | 464 kts | 324° |
| 2026-05-05 10:15 | -31.77530 | 141.31281 | 38279 ft | 464 kts | 324° |
| 2026-05-05 10:16 | -31.72014 | 141.27314 | 38278 ft | 464 kts | 326° |
| 2026-05-05 10:16 | -31.66492 | 141.23415 | 38276 ft | 464 kts | 326° |
| 2026-05-05 10:17 | -31.60952 | 141.19479 | 38275 ft | 464 kts | 326° |
| 2026-05-05 10:17 | -31.55449 | 141.15513 | 38269 ft | 464 kts | 326° |
| 2026-05-05 10:18 | -31.49964 | 141.11531 | 38269 ft | 464 kts | 326° |
| 2026-05-05 10:18 | -31.44512 | 141.07508 | 38272 ft | 463 kts | 323° |
| 2026-05-05 10:19 | -31.39100 | 141.03413 | 38268 ft | 463 kts | 323° |
| 2026-05-05 10:19 | -31.33654 | 140.99402 | 38265 ft | 463 kts | 324° |
| 2026-05-05 10:20 | -31.28157 | 140.95447 | 38262 ft | 463 kts | 324° |
| 2026-05-05 10:20 | -31.22658 | 140.91516 | 38262 ft | 463 kts | 324° |
| 2026-05-05 10:21 | -31.17163 | 140.87587 | 38262 ft | 463 kts | 324° |
| 2026-05-05 10:21 | -31.11671 | 140.83660 | 38265 ft | 463 kts | 324° |
| 2026-05-05 10:22 | -31.06188 | 140.79743 | 38261 ft | 462 kts | 324° |
| 2026-05-05 10:22 | -31.00702 | 140.75830 | 38261 ft | 462 kts | 324° |
| 2026-05-05 10:23 | -30.95217 | 140.71924 | 38259 ft | 462 kts | 324° |
| 2026-05-05 10:23 | -30.89733 | 140.68024 | 38259 ft | 462 kts | 324° |
| 2026-05-05 10:24 | -30.84251 | 140.64131 | 38261 ft | 462 kts | 324° |
| 2026-05-05 10:24 | -30.78804 | 140.60267 | 38259 ft | 461 kts | 324° |
| 2026-05-05 10:25 | -30.73321 | 140.56382 | 38257 ft | 461 kts | 324° |
| 2026-05-05 10:25 | -30.67842 | 140.52508 | 38260 ft | 461 kts | 324° |
| 2026-05-05 10:26 | -30.62364 | 140.48639 | 38259 ft | 461 kts | 324° |
| 2026-05-05 10:26 | -30.56888 | 140.44775 | 38258 ft | 461 kts | 324° |
| 2026-05-05 10:27 | -30.51373 | 140.40889 | 38263 ft | 460 kts | 324° |
| 2026-05-05 10:27 | -30.45898 | 140.37036 | 38254 ft | 460 kts | 324° |
| 2026-05-05 10:28 | -30.40427 | 140.33193 | 38260 ft | 460 kts | 324° |
| 2026-05-05 10:28 | -30.34951 | 140.29351 | 38256 ft | 460 kts | 324° |
| 2026-05-05 10:29 | -30.29517 | 140.25541 | 38262 ft | 460 kts | 324° |
| 2026-05-05 10:29 | -30.24048 | 140.21712 | 38258 ft | 460 kts | 324° |
| 2026-05-05 10:30 | -30.18576 | 140.17888 | 38257 ft | 459 kts | 324° |
| 2026-05-05 10:30 | -30.13108 | 140.14071 | 38256 ft | 459 kts | 324° |
| 2026-05-05 10:31 | -30.07641 | 140.10260 | 38260 ft | 459 kts | 324° |
| 2026-05-05 10:31 | -30.02181 | 140.06459 | 38258 ft | 459 kts | 324° |
| 2026-05-05 10:32 | -29.96713 | 140.02658 | 38258 ft | 458 kts | 324° |
| 2026-05-05 10:32 | -29.91253 | 139.98866 | 38253 ft | 458 kts | 323° |
| 2026-05-05 10:33 | -29.85789 | 139.95075 | 38261 ft | 458 kts | 323° |
| 2026-05-05 10:33 | -29.80328 | 139.91292 | 38251 ft | 458 kts | 323° |
| 2026-05-05 10:34 | -29.74871 | 139.87517 | 38257 ft | 458 kts | 323° |
| 2026-05-05 10:34 | -29.69421 | 139.83752 | 38255 ft | 457 kts | 323° |
| 2026-05-05 10:35 | -29.63887 | 139.80099 | 38251 ft | 459 kts | 326° |
| 2026-05-05 10:35 | -29.58238 | 139.76675 | 38257 ft | 459 kts | 327° |
| 2026-05-05 10:36 | -29.52590 | 139.73256 | 38252 ft | 458 kts | 326° |
| 2026-05-05 10:36 | -29.46967 | 139.69807 | 38251 ft | 458 kts | 326° |
| 2026-05-05 10:37 | -29.41360 | 139.66348 | 38251 ft | 458 kts | 326° |
| 2026-05-05 10:37 | -29.35757 | 139.62893 | 38250 ft | 457 kts | 326° |
| 2026-05-05 10:38 | -29.30148 | 139.59441 | 38247 ft | 457 kts | 326° |
| 2026-05-05 10:38 | -29.07617 | 139.45585 | 38250 ft | 457 kts | 326° |
| 2026-05-05 10:39 | -28.85171 | 139.31901 | 38250 ft | 456 kts | 326° |
| 2026-05-05 10:39 | -28.62775 | 139.18305 | 38243 ft | 456 kts | 325° |
| 2026-05-05 10:40 | -28.40405 | 139.04789 | 38257 ft | 455 kts | 326° |
| 2026-05-05 10:40 | -28.18074 | 138.91377 | 38245 ft | 454 kts | 325° |
| 2026-05-05 10:41 | -27.95754 | 138.78010 | 38243 ft | 453 kts | 325° |
| 2026-05-05 10:41 | -27.73430 | 138.64707 | 38243 ft | 453 kts | 325° |
| 2026-05-05 10:42 | -27.40033 | 138.44925 | 38243 ft | 452 kts | 325° |
| 2026-05-05 10:43 | -27.17909 | 138.31897 | 38241 ft | 451 kts | 325° |
| 2026-05-05 10:43 | -26.95639 | 138.18843 | 38238 ft | 451 kts | 325° |
| 2026-05-05 10:44 | -26.73400 | 138.05865 | 38233 ft | 451 kts | 325° |
| 2026-05-05 10:44 | -26.51142 | 137.92934 | 38228 ft | 451 kts | 324° |
| 2026-05-05 10:45 | -26.28902 | 137.80073 | 38237 ft | 450 kts | 324° |
| 2026-05-05 10:45 | -26.06636 | 137.67250 | 38231 ft | 450 kts | 324° |
| 2026-05-05 10:46 | -25.84379 | 137.54489 | 38230 ft | 450 kts | 324° |
| 2026-05-05 10:46 | -25.62148 | 137.41797 | 38227 ft | 449 kts | 324° |
| 2026-05-05 10:47 | -25.39946 | 137.29168 | 38228 ft | 449 kts | 324° |
| 2026-05-05 10:47 | -25.17755 | 137.16592 | 38227 ft | 448 kts | 324° |
| 2026-05-05 10:48 | -24.95569 | 137.04088 | 38227 ft | 447 kts | 324° |
| 2026-05-05 10:48 | -24.73384 | 136.91641 | 38228 ft | 447 kts | 324° |
| 2026-05-05 10:49 | -24.51238 | 136.79256 | 38228 ft | 446 kts | 323° |
| 2026-05-05 10:49 | -24.29098 | 136.66925 | 38225 ft | 446 kts | 323° |
| 2026-05-05 10:50 | -24.06976 | 136.54650 | 38219 ft | 446 kts | 323° |
| 2026-05-05 10:50 | -23.84846 | 136.42420 | 38221 ft | 446 kts | 323° |
| 2026-05-05 10:51 | -23.62706 | 136.30231 | 38218 ft | 446 kts | 323° |
| 2026-05-05 10:51 | -23.40557 | 136.18083 | 38221 ft | 446 kts | 323° |
| 2026-05-05 10:52 | -23.18424 | 136.05990 | 38215 ft | 445 kts | 323° |
| 2026-05-05 10:52 | -22.96265 | 135.93928 | 38213 ft | 445 kts | 323° |
| 2026-05-05 10:53 | -22.74059 | 135.81887 | 38205 ft | 446 kts | 323° |
| 2026-05-05 10:53 | -22.52021 | 135.69981 | 38203 ft | 446 kts | 323° |
| 2026-05-05 10:54 | -22.29775 | 135.58013 | 38204 ft | 446 kts | 323° |
| 2026-05-05 10:54 | -22.07511 | 135.46077 | 38194 ft | 447 kts | 323° |
| 2026-05-05 10:55 | -21.85222 | 135.34168 | 38184 ft | 448 kts | 323° |
| 2026-05-05 10:55 | -21.62845 | 135.22254 | 38177 ft | 449 kts | 324° |
| 2026-05-05 10:56 | -21.40394 | 135.10355 | 38172 ft | 451 kts | 324° |
| 2026-05-05 10:56 | -21.17884 | 134.98462 | 38166 ft | 451 kts | 324° |
| 2026-05-05 10:57 | -20.95309 | 134.86587 | 38164 ft | 452 kts | 324° |
| 2026-05-05 10:57 | -20.72690 | 134.74729 | 38155 ft | 452 kts | 325° |
| 2026-05-05 10:58 | -20.50080 | 134.62905 | 38149 ft | 453 kts | 325° |
| 2026-05-05 10:58 | -20.27408 | 134.51099 | 38137 ft | 453 kts | 325° |
| 2026-05-05 10:59 | -20.04780 | 134.39353 | 38132 ft | 452 kts | 325° |
| 2026-05-05 10:59 | -19.85944 | 134.29606 | 38127 ft | 452 kts | 325° |
| 2026-05-05 11:00 | -19.63288 | 134.18035 | 38122 ft | 457 kts | 330° |
| 2026-05-05 11:00 | -19.39039 | 134.09098 | 38115 ft | 459 kts | 332° |
| 2026-05-05 11:01 | -19.15007 | 134.00354 | 38109 ft | 459 kts | 332° |
| 2026-05-05 11:01 | -18.90815 | 133.91579 | 38105 ft | 460 kts | 332° |
| 2026-05-05 11:02 | -18.66596 | 133.82820 | 38099 ft | 461 kts | 332° |
| 2026-05-05 11:02 | -18.42296 | 133.74060 | 38084 ft | 462 kts | 332° |
| 2026-05-05 11:03 | -18.17937 | 133.65304 | 38084 ft | 463 kts | 333° |
| 2026-05-05 11:03 | -17.93554 | 133.56561 | 38077 ft | 463 kts | 333° |
| 2026-05-05 11:04 | -17.69144 | 133.47792 | 38075 ft | 464 kts | 333° |
| 2026-05-05 11:04 | -17.44706 | 133.39073 | 38065 ft | 465 kts | 333° |
| 2026-05-05 11:05 | -17.20151 | 133.30352 | 38062 ft | 467 kts | 333° |
| 2026-05-05 11:05 | -16.95476 | 133.21609 | 38057 ft | 468 kts | 333° |
| 2026-05-05 11:06 | -16.70716 | 133.12932 | 38050 ft | 470 kts | 334° |
| 2026-05-05 11:06 | -16.45942 | 133.04311 | 38040 ft | 469 kts | 333° |
| 2026-05-05 11:07 | -16.21172 | 132.95573 | 38031 ft | 470 kts | 334° |
| 2026-05-05 11:07 | -15.96411 | 132.86930 | 38027 ft | 471 kts | 334° |
| 2026-05-05 11:08 | -15.71515 | 132.78250 | 38016 ft | 471 kts | 334° |
| 2026-05-05 11:08 | -15.46603 | 132.69605 | 38010 ft | 472 kts | 335° |
| 2026-05-05 11:09 | -15.21654 | 132.60962 | 38013 ft | 473 kts | 335° |
| 2026-05-05 11:09 | -14.96872 | 132.52396 | 37977 ft | 474 kts | 336° |
| 2026-05-05 11:09 | -14.90921 | 132.50823 | 38219 ft | 472 kts | 349° |
| 2026-05-05 11:10 | -14.87730 | 132.50240 | 38447 ft | 464 kts | 337° |
| 2026-05-05 11:10 | -14.84669 | 132.49140 | 38291 ft | 467 kts | 332° |
| 2026-05-05 11:10 | -14.81660 | 132.47826 | 38036 ft | 472 kts | 331° |
| 2026-05-05 11:11 | -14.75586 | 132.45226 | 37993 ft | 474 kts | 333° |
| 2026-05-05 11:11 | -14.69376 | 132.42902 | 37991 ft | 475 kts | 335° |
| 2026-05-05 11:12 | -14.63114 | 132.40739 | 37990 ft | 475 kts | 336° |
| 2026-05-05 11:12 | -14.56835 | 132.38601 | 37994 ft | 475 kts | 336° |
| 2026-05-05 11:13 | -14.50440 | 132.36784 | 37998 ft | 482 kts | 345° |
| 2026-05-05 11:13 | -14.43804 | 132.35739 | 37994 ft | 483 kts | 346° |
| 2026-05-05 11:14 | -14.37147 | 132.34824 | 37990 ft | 482 kts | 347° |
| 2026-05-05 11:14 | -14.30501 | 132.33920 | 37992 ft | 482 kts | 347° |
| 2026-05-05 11:15 | -14.23845 | 132.32999 | 37982 ft | 482 kts | 347° |
| 2026-05-05 11:15 | -14.17194 | 132.32070 | 37985 ft | 482 kts | 347° |
| 2026-05-05 11:16 | -14.10549 | 132.31142 | 37989 ft | 482 kts | 347° |
| 2026-05-05 11:16 | -14.03900 | 132.30213 | 37984 ft | 482 kts | 347° |
| 2026-05-05 11:17 | -13.97251 | 132.29286 | 37979 ft | 482 kts | 347° |
| 2026-05-05 11:17 | -13.90604 | 132.28359 | 37978 ft | 482 kts | 347° |
| 2026-05-05 11:18 | -13.83954 | 132.27433 | 37977 ft | 482 kts | 347° |
| 2026-05-05 11:18 | -13.77313 | 132.26508 | 37974 ft | 482 kts | 347° |
| 2026-05-05 11:19 | -13.70714 | 132.25590 | 37977 ft | 482 kts | 348° |
| 2026-05-05 11:19 | -13.64073 | 132.24667 | 37974 ft | 482 kts | 348° |
| 2026-05-05 11:20 | -13.57430 | 132.23743 | 37967 ft | 482 kts | 348° |
| 2026-05-05 11:20 | -13.50789 | 132.22821 | 37966 ft | 482 kts | 348° |
| 2026-05-05 11:21 | -13.44145 | 132.21898 | 37963 ft | 482 kts | 348° |
| 2026-05-05 11:21 | -13.37495 | 132.20975 | 37963 ft | 482 kts | 348° |
| 2026-05-05 11:22 | -13.30835 | 132.20052 | 37960 ft | 483 kts | 348° |
| 2026-05-05 11:22 | -13.24180 | 132.19129 | 37956 ft | 483 kts | 348° |
| 2026-05-05 11:23 | -13.17520 | 132.18206 | 37954 ft | 483 kts | 349° |
| 2026-05-05 11:23 | -13.10852 | 132.17283 | 37953 ft | 483 kts | 349° |
| 2026-05-05 11:24 | -13.04184 | 132.16360 | 37949 ft | 484 kts | 349° |
| 2026-05-05 11:24 | -12.97510 | 132.15438 | 37946 ft | 484 kts | 349° |
| 2026-05-05 11:25 | -12.90839 | 132.14516 | 37942 ft | 484 kts | 349° |
| 2026-05-05 11:25 | -12.84165 | 132.13594 | 37944 ft | 484 kts | 349° |
| 2026-05-05 11:26 | -12.77495 | 132.12673 | 37939 ft | 484 kts | 349° |
| 2026-05-05 11:26 | -12.70827 | 132.11753 | 37943 ft | 483 kts | 349° |
| 2026-05-05 11:27 | -12.64162 | 132.10834 | 37945 ft | 483 kts | 349° |
| 2026-05-05 11:27 | -12.57496 | 132.09916 | 37939 ft | 483 kts | 349° |
| 2026-05-05 11:28 | -12.50835 | 132.08999 | 37939 ft | 483 kts | 349° |
| 2026-05-05 11:28 | -12.44175 | 132.08081 | 37937 ft | 483 kts | 349° |
| 2026-05-05 11:29 | -12.37511 | 132.07164 | 37936 ft | 483 kts | 350° |
| 2026-05-05 11:29 | -12.30850 | 132.06247 | 37936 ft | 483 kts | 350° |
| 2026-05-05 11:30 | -12.24187 | 132.05332 | 37937 ft | 483 kts | 350° |
| 2026-05-05 11:30 | -12.17525 | 132.04416 | 37931 ft | 483 kts | 350° |
| 2026-05-05 11:31 | -12.10858 | 132.03500 | 37934 ft | 483 kts | 350° |
| 2026-05-05 11:31 | -12.04237 | 132.02591 | 37934 ft | 483 kts | 350° |
| 2026-05-05 11:32 | -11.97571 | 132.01677 | 37935 ft | 483 kts | 350° |
| 2026-05-05 11:32 | -11.90903 | 132.00763 | 37940 ft | 483 kts | 350° |
| 2026-05-05 11:33 | -11.84233 | 131.99848 | 37941 ft | 483 kts | 350° |
| 2026-05-05 11:33 | -11.77571 | 131.98936 | 37929 ft | 483 kts | 350° |
| 2026-05-05 11:34 | -11.70905 | 131.98023 | 37941 ft | 483 kts | 350° |
| 2026-05-05 11:34 | -11.64241 | 131.97108 | 37945 ft | 483 kts | 350° |
| 2026-05-05 11:35 | -11.57803 | 131.95289 | 37938 ft | 479 kts | 334° |
| 2026-05-05 11:35 | -11.53161 | 131.92493 | 37924 ft | 478 kts | 323° |
| 2026-05-05 11:35 | -11.47947 | 131.88573 | 37942 ft | 480 kts | 321° |
| 2026-05-05 11:36 | -11.37308 | 131.80289 | 37939 ft | 480 kts | 322° |
| 2026-05-05 11:36 | -11.26624 | 131.72100 | 37941 ft | 480 kts | 322° |
| 2026-05-05 11:37 | -11.15928 | 131.63928 | 37936 ft | 481 kts | 323° |
| 2026-05-05 11:37 | -11.05255 | 131.55780 | 37939 ft | 481 kts | 321° |
| 2026-05-05 11:38 | -10.94544 | 131.47556 | 37941 ft | 480 kts | 322° |
| 2026-05-05 11:38 | -10.83851 | 131.39416 | 37939 ft | 480 kts | 322° |
| 2026-05-05 11:39 | -10.73157 | 131.31282 | 37941 ft | 480 kts | 322° |
| 2026-05-05 11:39 | -10.62469 | 131.23153 | 37936 ft | 480 kts | 322° |
| 2026-05-05 11:40 | -10.51771 | 131.15015 | 37940 ft | 480 kts | 322° |
| 2026-05-05 11:40 | -10.41055 | 131.06872 | 37940 ft | 481 kts | 322° |
| 2026-05-05 11:41 | -10.30358 | 130.98752 | 37938 ft | 480 kts | 322° |
| 2026-05-05 11:41 | -10.19658 | 130.90634 | 37938 ft | 480 kts | 322° |
| 2026-05-05 11:42 | -10.08998 | 130.82553 | 37935 ft | 480 kts | 322° |
| 2026-05-05 11:42 | -9.98241 | 130.74442 | 37936 ft | 479 kts | 322° |
| 2026-05-05 11:43 | -9.87547 | 130.66377 | 37935 ft | 479 kts | 322° |
| 2026-05-05 11:43 | -9.78669 | 130.59662 | 37933 ft | 479 kts | 322° |
| 2026-05-05 11:44 | -9.67991 | 130.51587 | 37935 ft | 478 kts | 322° |
| 2026-05-05 11:44 | -9.55558 | 130.42169 | 37933 ft | 478 kts | 322° |
| 2026-05-05 11:45 | -9.44898 | 130.34111 | 37933 ft | 478 kts | 322° |
| 2026-05-05 11:45 | -9.36058 | 130.27450 | 37933 ft | 477 kts | 322° |
| 2026-05-05 11:46 | -9.25377 | 130.19406 | 37936 ft | 477 kts | 322° |
| 2026-05-05 11:46 | -9.14725 | 130.11390 | 37934 ft | 477 kts | 322° |
| 2026-05-05 11:47 | -9.04091 | 130.03375 | 37934 ft | 477 kts | 322° |
| 2026-05-05 11:47 | -8.93435 | 129.95343 | 37930 ft | 477 kts | 322° |
| 2026-05-05 11:48 | -8.77477 | 129.83368 | 37928 ft | 477 kts | 320° |
| 2026-05-05 11:48 | -8.66820 | 129.75348 | 37926 ft | 477 kts | 323° |
| 2026-05-05 11:49 | -8.56039 | 129.67531 | 37937 ft | 478 kts | 329° |
| 2026-05-05 11:49 | -8.49954 | 129.64883 | 38449 ft | 476 kts | 339° |
| 2026-05-05 11:49 | -8.43632 | 129.62890 | 38875 ft | 474 kts | 341° |
| 2026-05-05 11:50 | -8.37291 | 129.61029 | 39140 ft | 475 kts | 341° |
| 2026-05-05 11:50 | -8.30944 | 129.59150 | 39420 ft | 475 kts | 341° |
| 2026-05-05 11:50 | -8.24591 | 129.57237 | 39671 ft | 476 kts | 341° |
| 2026-05-05 11:50 | -8.18255 | 129.55318 | 39897 ft | 477 kts | 341° |
| 2026-05-05 11:51 | -8.05544 | 129.51475 | 39915 ft | 478 kts | 341° |
| 2026-05-05 11:51 | -7.92764 | 129.47609 | 39919 ft | 479 kts | 341° |
| 2026-05-05 11:52 | -7.80005 | 129.43730 | 39920 ft | 480 kts | 341° |
| 2026-05-05 11:52 | -7.67226 | 129.39897 | 39922 ft | 480 kts | 341° |
| 2026-05-05 11:53 | -7.54400 | 129.36031 | 39915 ft | 480 kts | 341° |
| 2026-05-05 11:53 | -7.41619 | 129.32177 | 39915 ft | 480 kts | 341° |
| 2026-05-05 11:54 | -7.28825 | 129.28324 | 39916 ft | 480 kts | 341° |
| 2026-05-05 11:54 | -7.16053 | 129.24475 | 39915 ft | 480 kts | 341° |
| 2026-05-05 11:55 | -7.03224 | 129.20616 | 39912 ft | 480 kts | 341° |
| 2026-05-05 11:55 | -6.90455 | 129.16772 | 39912 ft | 481 kts | 341° |
| 2026-05-05 11:56 | -6.77596 | 129.12907 | 39911 ft | 481 kts | 341° |
| 2026-05-05 11:56 | -6.64785 | 129.09060 | 39909 ft | 480 kts | 341° |
| 2026-05-05 11:57 | -6.52017 | 129.05221 | 39909 ft | 480 kts | 341° |
| 2026-05-05 11:57 | -6.39197 | 129.01375 | 39911 ft | 480 kts | 341° |
| 2026-05-05 11:58 | -6.26397 | 128.97523 | 39909 ft | 480 kts | 341° |
| 2026-05-05 11:58 | -6.13585 | 128.93692 | 39911 ft | 481 kts | 341° |
| 2026-05-05 11:59 | -6.00753 | 128.89857 | 39908 ft | 481 kts | 341° |
| 2026-05-05 11:59 | -5.87901 | 128.86002 | 39907 ft | 483 kts | 341° |
| 2026-05-05 12:00 | -5.75018 | 128.82144 | 39910 ft | 484 kts | 341° |
| 2026-05-05 12:00 | -5.62083 | 128.78274 | 39908 ft | 485 kts | 341° |
| 2026-05-05 12:01 | -5.49127 | 128.74400 | 39906 ft | 486 kts | 342° |
| 2026-05-05 12:01 | -5.36161 | 128.70523 | 39912 ft | 486 kts | 342° |
| 2026-05-05 12:02 | -5.23215 | 128.66655 | 39909 ft | 486 kts | 342° |
| 2026-05-05 12:02 | -5.10250 | 128.62782 | 39908 ft | 486 kts | 342° |
| 2026-05-05 12:03 | -4.97395 | 128.58945 | 39914 ft | 484 kts | 342° |
| 2026-05-05 12:03 | -4.84407 | 128.55068 | 39917 ft | 484 kts | 342° |
| 2026-05-05 12:04 | -4.71486 | 128.51214 | 39912 ft | 484 kts | 342° |
| 2026-05-05 12:04 | -4.58684 | 128.47395 | 39913 ft | 484 kts | 342° |
| 2026-05-05 12:05 | -4.45740 | 128.43537 | 39909 ft | 485 kts | 343° |
| 2026-05-05 12:05 | -4.32817 | 128.39684 | 39912 ft | 485 kts | 343° |
| 2026-05-05 12:06 | -4.19845 | 128.35815 | 39909 ft | 486 kts | 343° |
| 2026-05-05 12:06 | -4.06874 | 128.31953 | 39907 ft | 488 kts | 343° |
| 2026-05-05 12:07 | -3.93854 | 128.28078 | 39900 ft | 489 kts | 343° |
| 2026-05-05 12:07 | -3.80812 | 128.24199 | 39886 ft | 490 kts | 343° |
| 2026-05-05 12:08 | -3.67688 | 128.20296 | 39883 ft | 492 kts | 343° |
| 2026-05-05 12:08 | -3.55234 | 128.14830 | 39886 ft | 492 kts | 329° |
| 2026-05-05 12:09 | -3.43396 | 128.07851 | 39890 ft | 493 kts | 329° |
| 2026-05-05 12:09 | -3.31646 | 128.00948 | 39895 ft | 492 kts | 329° |
| 2026-05-05 12:10 | -3.19760 | 127.93992 | 39899 ft | 492 kts | 329° |
| 2026-05-05 12:10 | -3.07910 | 127.87056 | 39900 ft | 493 kts | 329° |
| 2026-05-05 12:11 | -2.96072 | 127.80127 | 39898 ft | 494 kts | 329° |
| 2026-05-05 12:11 | -2.84210 | 127.73187 | 39897 ft | 493 kts | 329° |
| 2026-05-05 12:12 | -2.72359 | 127.66254 | 39902 ft | 493 kts | 329° |
| 2026-05-05 12:12 | -2.60508 | 127.59325 | 39846 ft | 494 kts | 329° |
| 2026-05-05 12:13 | -2.54572 | 127.55854 | 39378 ft | 494 kts | 329° |
| 2026-05-05 12:13 | -2.48559 | 127.52337 | 38994 ft | 507 kts | 329° |
| 2026-05-05 12:13 | -2.36285 | 127.45242 | 38820 ft | 511 kts | 330° |
| 2026-05-05 12:14 | -2.30184 | 127.41754 | 38592 ft | 512 kts | 330° |
| 2026-05-05 12:14 | -2.24031 | 127.38184 | 38406 ft | 512 kts | 330° |
| 2026-05-05 12:14 | -2.17883 | 127.34590 | 38237 ft | 512 kts | 330° |
| 2026-05-05 12:14 | -2.11739 | 127.30996 | 38118 ft | 512 kts | 330° |
| 2026-05-05 12:15 | -2.05591 | 127.27374 | 37991 ft | 512 kts | 328° |
| 2026-05-05 12:15 | -1.99486 | 127.23704 | 37894 ft | 512 kts | 328° |
| 2026-05-05 12:15 | -1.87205 | 127.16454 | 37894 ft | 512 kts | 329° |
| 2026-05-05 12:16 | -1.74894 | 127.09272 | 37895 ft | 512 kts | 329° |
| 2026-05-05 12:16 | -1.60084 | 127.00625 | 37895 ft | 512 kts | 329° |
| 2026-05-05 12:17 | -1.18810 | 126.76524 | 37895 ft | 512 kts | 329° |
| 2026-05-05 12:17 | -0.69462 | 126.47728 | 37885 ft | 515 kts | 329° |
| 2026-05-05 12:18 | -0.19964 | 126.18856 | 37883 ft | 515 kts | 329° |
| 2026-05-05 12:18 | 0.29739 | 125.89864 | 37909 ft | 518 kts | 329° |
| 2026-05-05 12:19 | 0.79538 | 125.60810 | 37887 ft | 518 kts | 329° |
| 2026-05-05 12:19 | 1.29420 | 125.31699 | 37913 ft | 522 kts | 328° |
| 2026-05-05 12:20 | 1.79573 | 125.02413 | 37926 ft | 524 kts | 329° |
| 2026-05-05 12:20 | 2.29928 | 124.72759 | 37896 ft | 523 kts | 328° |
| 2026-05-05 12:21 | 2.79291 | 124.43467 | 37854 ft | 517 kts | 328° |
| 2026-05-05 12:21 | 3.20434 | 124.18951 | 37890 ft | 516 kts | 328° |
| 2026-05-05 12:22 | 3.28636 | 124.14110 | 37887 ft | 520 kts | 328° |
| 2026-05-05 12:22 | 3.34820 | 124.10449 | 37887 ft | 520 kts | 328° |
| 2026-05-05 12:23 | 3.41031 | 124.06758 | 37890 ft | 520 kts | 328° |
| 2026-05-05 12:23 | 3.47245 | 124.03060 | 37886 ft | 519 kts | 328° |
| 2026-05-05 12:24 | 3.53457 | 123.99363 | 37887 ft | 520 kts | 328° |
| 2026-05-05 12:24 | 3.59673 | 123.95663 | 37886 ft | 520 kts | 328° |
| 2026-05-05 12:25 | 3.65883 | 123.91967 | 37886 ft | 519 kts | 328° |
| 2026-05-05 12:25 | 3.72093 | 123.88268 | 37888 ft | 519 kts | 327° |
| 2026-05-05 12:26 | 3.78254 | 123.84516 | 37888 ft | 519 kts | 327° |
| 2026-05-05 12:26 | 3.84446 | 123.80764 | 37888 ft | 519 kts | 328° |
| 2026-05-05 12:27 | 3.90657 | 123.77075 | 37886 ft | 520 kts | 328° |
| 2026-05-05 12:27 | 3.96887 | 123.73382 | 37885 ft | 520 kts | 328° |
| 2026-05-05 12:28 | 4.03109 | 123.69715 | 37888 ft | 520 kts | 329° |
| 2026-05-05 12:28 | 4.09423 | 123.66157 | 37886 ft | 520 kts | 329° |
| 2026-05-05 12:29 | 4.14669 | 123.63223 | 37887 ft | 520 kts | 329° |
| 2026-05-05 12:29 | 4.20965 | 123.59680 | 37888 ft | 520 kts | 329° |
| 2026-05-05 12:30 | 4.27270 | 123.56114 | 37889 ft | 520 kts | 329° |
| 2026-05-05 12:30 | 4.33562 | 123.52552 | 37888 ft | 520 kts | 329° |
| 2026-05-05 12:31 | 4.39860 | 123.48984 | 37890 ft | 520 kts | 329° |
| 2026-05-05 12:31 | 4.46166 | 123.45442 | 37890 ft | 520 kts | 330° |
| 2026-05-05 12:32 | 4.52483 | 123.41920 | 37886 ft | 520 kts | 330° |
| 2026-05-05 12:32 | 4.58789 | 123.38371 | 37890 ft | 520 kts | 330° |
| 2026-05-05 12:33 | 4.65097 | 123.34799 | 37891 ft | 520 kts | 330° |
| 2026-05-05 12:33 | 4.71391 | 123.31229 | 37891 ft | 520 kts | 330° |
| 2026-05-05 12:34 | 4.77685 | 123.27659 | 37889 ft | 520 kts | 330° |
| 2026-05-05 12:34 | 4.83979 | 123.24086 | 37889 ft | 520 kts | 330° |
| 2026-05-05 12:35 | 4.90266 | 123.20515 | 37886 ft | 520 kts | 330° |
| 2026-05-05 12:35 | 4.96556 | 123.16943 | 37891 ft | 520 kts | 330° |
| 2026-05-05 12:36 | 5.02850 | 123.13372 | 37888 ft | 519 kts | 330° |
| 2026-05-05 12:36 | 5.09131 | 123.09809 | 37891 ft | 519 kts | 330° |
| 2026-05-05 12:37 | 5.15428 | 123.06233 | 37891 ft | 519 kts | 330° |
| 2026-05-05 12:37 | 5.21709 | 123.02668 | 37891 ft | 519 kts | 330° |
| 2026-05-05 12:38 | 5.27990 | 122.99101 | 37890 ft | 519 kts | 330° |
| 2026-05-05 12:38 | 5.52028 | 122.85428 | 37889 ft | 518 kts | 330° |
| 2026-05-05 12:39 | 5.77108 | 122.71164 | 37886 ft | 517 kts | 329° |
| 2026-05-05 12:39 | 6.02153 | 122.56900 | 37887 ft | 518 kts | 329° |
| 2026-05-05 12:40 | 6.27226 | 122.42610 | 37891 ft | 518 kts | 329° |
| 2026-05-05 12:40 | 6.52230 | 122.28341 | 37891 ft | 516 kts | 329° |
| 2026-05-05 12:41 | 6.77129 | 122.14113 | 37888 ft | 514 kts | 329° |
| 2026-05-05 12:41 | 7.02250 | 122.00376 | 37888 ft | 515 kts | 334° |
| 2026-05-05 12:42 | 7.28035 | 121.87856 | 37898 ft | 515 kts | 333° |
| 2026-05-05 12:42 | 7.53867 | 121.75139 | 37892 ft | 517 kts | 333° |
| 2026-05-05 12:43 | 7.79728 | 121.62398 | 37893 ft | 518 kts | 332° |
| 2026-05-05 12:43 | 8.05658 | 121.49606 | 37890 ft | 518 kts | 332° |
| 2026-05-05 12:44 | 8.31565 | 121.36807 | 37890 ft | 519 kts | 332° |
| 2026-05-05 12:44 | 8.57500 | 121.23974 | 37889 ft | 519 kts | 332° |
| 2026-05-05 12:45 | 8.83452 | 121.11113 | 37891 ft | 518 kts | 332° |
| 2026-05-05 12:45 | 9.09232 | 120.98317 | 37892 ft | 515 kts | 333° |
| 2026-05-05 12:46 | 9.34964 | 120.85526 | 37890 ft | 514 kts | 333° |
| 2026-05-05 12:46 | 9.60656 | 120.72733 | 37893 ft | 514 kts | 332° |
| 2026-05-05 12:47 | 9.86300 | 120.59946 | 37891 ft | 513 kts | 332° |
| 2026-05-05 12:47 | 10.11866 | 120.47161 | 37892 ft | 512 kts | 332° |
| 2026-05-05 12:48 | 10.37421 | 120.34346 | 37896 ft | 513 kts | 332° |
| 2026-05-05 12:48 | 10.62991 | 120.21473 | 37897 ft | 511 kts | 332° |
| 2026-05-05 12:49 | 10.72619 | 120.16627 | 37898 ft | 511 kts | 332° |
| 2026-05-05 12:49 | 10.78983 | 120.13425 | 37898 ft | 510 kts | 332° |
| 2026-05-05 12:50 | 10.85336 | 120.10223 | 37899 ft | 510 kts | 332° |
| 2026-05-05 12:50 | 10.91688 | 120.07017 | 37899 ft | 509 kts | 332° |
| 2026-05-05 12:51 | 10.98034 | 120.03812 | 37902 ft | 509 kts | 332° |
| 2026-05-05 12:51 | 11.04378 | 120.00611 | 37900 ft | 509 kts | 332° |
| 2026-05-05 12:52 | 11.10700 | 119.97415 | 37901 ft | 508 kts | 331° |
| 2026-05-05 12:52 | 11.17040 | 119.94197 | 37900 ft | 508 kts | 331° |
| 2026-05-05 12:53 | 11.23353 | 119.90994 | 37903 ft | 507 kts | 331° |
| 2026-05-05 12:53 | 11.29678 | 119.87788 | 37902 ft | 507 kts | 331° |
| 2026-05-05 12:54 | 11.39146 | 119.82985 | 37904 ft | 506 kts | 331° |
| 2026-05-05 12:55 | 11.45450 | 119.79785 | 37904 ft | 506 kts | 331° |
| 2026-05-05 12:55 | 11.51753 | 119.76584 | 37904 ft | 506 kts | 331° |
| 2026-05-05 12:56 | 11.56164 | 119.74342 | 37904 ft | 506 kts | 331° |
| 2026-05-05 12:56 | 11.62462 | 119.71134 | 37903 ft | 505 kts | 331° |
| 2026-05-05 12:57 | 11.68753 | 119.67932 | 37908 ft | 505 kts | 331° |
| 2026-05-05 12:57 | 11.75046 | 119.64745 | 37907 ft | 505 kts | 331° |
| 2026-05-05 12:58 | 11.81344 | 119.61549 | 37905 ft | 505 kts | 331° |
| 2026-05-05 12:58 | 11.87637 | 119.58352 | 37905 ft | 505 kts | 331° |
| 2026-05-05 12:59 | 11.93930 | 119.55156 | 37903 ft | 505 kts | 331° |
| 2026-05-05 12:59 | 12.00214 | 119.51964 | 37901 ft | 505 kts | 331° |
| 2026-05-05 13:00 | 12.09649 | 119.47168 | 37904 ft | 505 kts | 331° |
| 2026-05-05 13:01 | 12.22186 | 119.40793 | 37905 ft | 505 kts | 331° |
| 2026-05-05 13:01 | 12.28473 | 119.37597 | 37908 ft | 505 kts | 332° |
| 2026-05-05 13:02 | 12.34755 | 119.34406 | 37907 ft | 504 kts | 332° |
| 2026-05-05 13:02 | 12.41027 | 119.31211 | 37900 ft | 504 kts | 331° |
| 2026-05-05 13:03 | 12.47315 | 119.27996 | 37907 ft | 504 kts | 331° |
| 2026-05-05 13:03 | 12.53586 | 119.24791 | 37910 ft | 504 kts | 331° |
| 2026-05-05 13:04 | 12.59856 | 119.21588 | 37905 ft | 503 kts | 331° |
| 2026-05-05 13:04 | 12.65865 | 119.18526 | 37906 ft | 503 kts | 333° |